sensor_id;sensor_type;location;lat;lon;timestamp;pressure;altitude;pressure_sealevel;temperature;humidity
13732;BME280;6937;56.096;12.664;2023-03-15T00:01:18;99602.13;;;3.23;100.00
13732;BME280;6937;56.096;12.664;2023-03-15T00:03:45;99602.22;;;3.22;100.00
13732;BME280;6937;56.096;12.664;2023-03-15T00:06:11;99598.06;;;3.18;100.00
13732;BME280;6937;56.096;12.664;2023-03-15T00:08:37;99598.06;;;3.18;100.00
13732;BME280;6937;56.096;12.664;2023-03-15T00:11:03;99589.97;;;3.21;100.00
13732;BME280;6937;56.096;12.664;2023-03-15T00:13:29;99596.28;;;3.18;100.00
13732;BME280;6937;56.096;12.664;2023-03-15T00:15:56;99600.03;;;3.14;100.00
13732;BME280;6937;56.096;12.664;2023-03-15T00:18:22;99604.66;;;3.11;100.00
13732;BME280;6937;56.096;12.664;2023-03-15T00:20:48;99609.09;;;3.10;100.00
13732;BME280;6937;56.096;12.664;2023-03-15T00:23:14;99615.31;;;3.09;100.00
13732;BME280;6937;56.096;12.664;2023-03-15T00:25:43;99613.53;;;3.10;100.00
13732;BME280;6937;56.096;12.664;2023-03-15T00:28:09;99622.28;;;3.24;100.00
13732;BME280;6937;56.096;12.664;2023-03-15T00:30:35;99629.69;;;3.33;100.00
13732;BME280;6937;56.096;12.664;2023-03-15T00:33:00;99629.28;;;3.39;100.00
13732;BME280;6937;56.096;12.664;2023-03-15T00:35:26;99638.91;;;3.40;100.00
13732;BME280;6937;56.096;12.664;2023-03-15T00:37:55;99639.94;;;3.38;100.00
13732;BME280;6937;56.096;12.664;2023-03-15T00:40:21;99656.44;;;3.41;100.00
13732;BME280;6937;56.096;12.664;2023-03-15T00:42:47;99674.91;;;3.41;100.00
13732;BME280;6937;56.096;12.664;2023-03-15T00:45:17;99665.88;;;3.46;100.00
13732;BME280;6937;56.096;12.664;2023-03-15T00:47:43;99676.56;;;3.44;100.00
13732;BME280;6937;56.096;12.664;2023-03-15T00:50:08;99683.50;;;3.45;100.00
13732;BME280;6937;56.096;12.664;2023-03-15T00:52:37;99698.69;;;3.41;100.00
13732;BME280;6937;56.096;12.664;2023-03-15T00:55:03;99703.16;;;3.41;100.00
13732;BME280;6937;56.096;12.664;2023-03-15T00:57:29;99714.53;;;3.41;100.00
13732;BME280;6937;56.096;12.664;2023-03-15T00:59:56;99712.94;;;3.39;100.00
13732;BME280;6937;56.096;12.664;2023-03-15T01:02:21;99713.78;;;3.39;100.00
13732;BME280;6937;56.096;12.664;2023-03-15T01:04:48;99726.34;;;3.36;100.00
13732;BME280;6937;56.096;12.664;2023-03-15T01:07:14;99726.41;;;3.34;100.00
13732;BME280;6937;56.096;12.664;2023-03-15T01:09:39;99741.31;;;3.35;100.00
13732;BME280;6937;56.096;12.664;2023-03-15T01:12:06;99739.59;;;3.34;100.00
13732;BME280;6937;56.096;12.664;2023-03-15T01:14:31;99758.00;;;3.36;100.00
13732;BME280;6937;56.096;12.664;2023-03-15T01:16:59;99752.91;;;3.33;100.00
13732;BME280;6937;56.096;12.664;2023-03-15T01:19:24;99773.94;;;3.34;100.00
13732;BME280;6937;56.096;12.664;2023-03-15T01:21:50;99770.16;;;3.24;100.00
13732;BME280;6937;56.096;12.664;2023-03-15T01:24:15;99778.13;;;3.23;100.00
13732;BME280;6937;56.096;12.664;2023-03-15T01:26:41;99791.88;;;3.29;100.00
13732;BME280;6937;56.096;12.664;2023-03-15T01:29:06;99788.44;;;3.27;100.00
13732;BME280;6937;56.096;12.664;2023-03-15T01:31:32;99788.53;;;3.26;100.00
13732;BME280;6937;56.096;12.664;2023-03-15T01:33:57;99788.53;;;3.26;100.00
13732;BME280;6937;56.096;12.664;2023-03-15T01:36:23;99800.97;;;3.24;100.00
13732;BME280;6937;56.096;12.664;2023-03-15T01:38:49;99802.69;;;3.25;100.00
13732;BME280;6937;56.096;12.664;2023-03-15T01:41:17;99807.84;;;3.26;100.00
13732;BME280;6937;56.096;12.664;2023-03-15T01:43:42;99814.78;;;3.29;100.00
13732;BME280;6937;56.096;12.664;2023-03-15T01:49:05;99836.56;;;3.32;100.00
13732;BME280;6937;56.096;12.664;2023-03-15T01:51:47;99835.03;;;3.28;100.00
13732;BME280;6937;56.096;12.664;2023-03-15T01:54:18;99844.25;;;3.21;100.00
13732;BME280;6937;56.096;12.664;2023-03-15T01:56:49;99845.53;;;3.14;100.00
13732;BME280;6937;56.096;12.664;2023-03-15T01:59:22;99855.50;;;3.09;100.00
13732;BME280;6937;56.096;12.664;2023-03-15T02:01:48;99862.81;;;3.04;100.00
13732;BME280;6937;56.096;12.664;2023-03-15T02:04:17;99865.44;;;3.04;100.00
13732;BME280;6937;56.096;12.664;2023-03-15T02:06:49;99871.81;;;3.00;100.00
13732;BME280;6937;56.096;12.664;2023-03-15T02:09:17;99874.56;;;2.99;100.00
13732;BME280;6937;56.096;12.664;2023-03-15T02:11:43;99874.75;;;2.96;100.00
13732;BME280;6937;56.096;12.664;2023-03-15T02:14:11;99874.75;;;2.96;100.00
13732;BME280;6937;56.096;12.664;2023-03-15T02:16:37;99881.03;;;2.93;100.00
13732;BME280;6937;56.096;12.664;2023-03-15T02:19:05;99879.41;;;2.90;100.00
13732;BME280;6937;56.096;12.664;2023-03-15T02:22:09;99885.78;;;2.86;100.00
13732;BME280;6937;56.096;12.664;2023-03-15T02:24:43;99891.06;;;2.86;100.00
13732;BME280;6937;56.096;12.664;2023-03-15T02:27:10;99879.66;;;2.86;100.00
13732;BME280;6937;56.096;12.664;2023-03-15T02:29:36;99886.81;;;2.84;100.00
13732;BME280;6937;56.096;12.664;2023-03-15T02:32:01;99895.50;;;2.86;100.00
13732;BME280;6937;56.096;12.664;2023-03-15T02:34:30;99905.19;;;2.85;100.00
13732;BME280;6937;56.096;12.664;2023-03-15T02:36:56;99898.13;;;2.86;100.00
13732;BME280;6937;56.096;12.664;2023-03-15T02:39:21;99892.97;;;2.84;100.00
13732;BME280;6937;56.096;12.664;2023-03-15T02:41:57;99899.91;;;2.85;100.00
13732;BME280;6937;56.096;12.664;2023-03-15T02:44:34;99900.03;;;2.84;100.00
13732;BME280;6937;56.096;12.664;2023-03-15T02:47:06;99896.53;;;2.83;100.00
13732;BME280;6937;56.096;12.664;2023-03-15T02:49:39;99897.69;;;2.78;100.00
13732;BME280;6937;56.096;12.664;2023-03-15T02:52:05;99909.22;;;2.77;100.00
13732;BME280;6937;56.096;12.664;2023-03-15T02:54:31;99910.06;;;2.77;100.00
13732;BME280;6937;56.096;12.664;2023-03-15T02:57:01;99909.88;;;2.80;100.00
13732;BME280;6937;56.096;12.664;2023-03-15T02:59:26;99917.97;;;2.77;100.00
13732;BME280;6937;56.096;12.664;2023-03-15T03:01:52;99923.16;;;2.79;100.00
13732;BME280;6937;56.096;12.664;2023-03-15T03:04:17;99926.72;;;2.78;100.00
13732;BME280;6937;56.096;12.664;2023-03-15T03:06:43;99925.97;;;2.76;100.00
13732;BME280;6937;56.096;12.664;2023-03-15T03:09:09;99936.44;;;2.77;100.00
13732;BME280;6937;56.096;12.664;2023-03-15T03:11:35;99942.53;;;2.78;100.00
13732;BME280;6937;56.096;12.664;2023-03-15T03:14:00;99955.75;;;2.78;100.00
13732;BME280;6937;56.096;12.664;2023-03-15T03:16:26;99946.28;;;2.74;100.00
13732;BME280;6937;56.096;12.664;2023-03-15T03:18:51;99966.56;;;2.73;100.00
13732;BME280;6937;56.096;12.664;2023-03-15T03:21:17;99964.84;;;2.72;100.00
13732;BME280;6937;56.096;12.664;2023-03-15T03:23:42;99964.75;;;2.74;100.00
13732;BME280;6937;56.096;12.664;2023-03-15T03:26:15;99971.16;;;2.70;100.00
13732;BME280;6937;56.096;12.664;2023-03-15T03:28:43;99977.19;;;2.72;100.00
13732;BME280;6937;56.096;12.664;2023-03-15T03:31:20;99965.16;;;2.66;100.00
13732;BME280;6937;56.096;12.664;2023-03-15T03:33:45;99961.00;;;2.62;100.00
13732;BME280;6937;56.096;12.664;2023-03-15T03:36:11;99973.31;;;2.62;100.00
13732;BME280;6937;56.096;12.664;2023-03-15T03:38:41;99977.66;;;2.63;100.00
13732;BME280;6937;56.096;12.664;2023-03-15T03:41:08;99989.22;;;2.60;100.00
13732;BME280;6937;56.096;12.664;2023-03-15T03:43:34;99992.56;;;2.64;100.00
13732;BME280;6937;56.096;12.664;2023-03-15T03:45:59;99986.50;;;2.62;100.00
13732;BME280;6937;56.096;12.664;2023-03-15T03:48:25;99988.47;;;2.58;100.00
13732;BME280;6937;56.096;12.664;2023-03-15T03:50:50;99999.00;;;2.58;100.00
13732;BME280;6937;56.096;12.664;2023-03-15T03:53:16;100001.94;;;2.52;100.00
13732;BME280;6937;56.096;12.664;2023-03-15T03:55:41;100009.69;;;2.55;100.00
13732;BME280;6937;56.096;12.664;2023-03-15T03:58:07;100009.78;;;2.54;100.00
13732;BME280;6937;56.096;12.664;2023-03-15T04:00:33;100013.53;;;2.50;100.00
13732;BME280;6937;56.096;12.664;2023-03-15T04:02:58;100030.78;;;2.55;100.00
13732;BME280;6937;56.096;12.664;2023-03-15T04:05:26;100028.78;;;2.60;100.00
13732;BME280;6937;56.096;12.664;2023-03-15T04:07:52;100020.66;;;2.65;100.00
13732;BME280;6937;56.096;12.664;2023-03-15T04:10:17;100032.97;;;2.64;100.00
13732;BME280;6937;56.096;12.664;2023-03-15T04:12:43;100020.66;;;2.65;100.00
13732;BME280;6937;56.096;12.664;2023-03-15T04:15:10;100021.41;;;2.67;100.00
13732;BME280;6937;56.096;12.664;2023-03-15T04:17:38;100024.03;;;2.67;100.00
13732;BME280;6937;56.096;12.664;2023-03-15T04:20:04;100028.47;;;2.66;100.00
13732;BME280;6937;56.096;12.664;2023-03-15T04:22:36;100025.00;;;2.66;100.00
13732;BME280;6937;56.096;12.664;2023-03-15T04:25:01;100035.44;;;2.67;100.00
13732;BME280;6937;56.096;12.664;2023-03-15T04:27:28;100036.25;;;2.69;100.00
13732;BME280;6937;56.096;12.664;2023-03-15T04:29:54;100052.81;;;2.71;100.00
13732;BME280;6937;56.096;12.664;2023-03-15T04:32:19;100040.56;;;2.70;100.00
13732;BME280;6937;56.096;12.664;2023-03-15T04:34:44;100047.66;;;2.70;100.00
13732;BME280;6937;56.096;12.664;2023-03-15T04:37:16;100058.19;;;2.70;100.00
13732;BME280;6937;56.096;12.664;2023-03-15T04:39:41;100048.56;;;2.69;100.00
13732;BME280;6937;56.096;12.664;2023-03-15T04:42:06;100056.66;;;2.66;100.00
13732;BME280;6937;56.096;12.664;2023-03-15T04:44:32;100057.34;;;2.69;100.00
13732;BME280;6937;56.096;12.664;2023-03-15T04:46:57;100057.56;;;2.65;100.00
13732;BME280;6937;56.096;12.664;2023-03-15T04:49:23;100050.75;;;2.61;100.00
13732;BME280;6937;56.096;12.664;2023-03-15T04:51:48;100060.66;;;2.56;100.00
13732;BME280;6937;56.096;12.664;2023-03-15T04:54:14;100063.31;;;2.56;100.00
13732;BME280;6937;56.096;12.664;2023-03-15T04:56:39;100064.38;;;2.52;100.00
13732;BME280;6937;56.096;12.664;2023-03-15T04:59:06;100063.47;;;2.53;100.00
13732;BME280;6937;56.096;12.664;2023-03-15T05:01:32;100067.19;;;2.49;100.00
13732;BME280;6937;56.096;12.664;2023-03-15T05:03:58;100083.94;;;2.48;100.00
13732;BME280;6937;56.096;12.664;2023-03-15T05:06:24;100086.56;;;2.48;100.00
13732;BME280;6937;56.096;12.664;2023-03-15T05:08:49;100091.00;;;2.47;100.00
13732;BME280;6937;56.096;12.664;2023-03-15T05:11:15;100098.13;;;2.45;100.00
13732;BME280;6937;56.096;12.664;2023-03-15T05:13:40;100106.13;;;2.43;100.00
13732;BME280;6937;56.096;12.664;2023-03-15T05:16:05;100109.75;;;2.41;100.00
13732;BME280;6937;56.096;12.664;2023-03-15T05:18:31;100111.63;;;2.39;100.00
13732;BME280;6937;56.096;12.664;2023-03-15T05:20:56;100116.91;;;2.39;100.00
13732;BME280;6937;56.096;12.664;2023-03-15T05:23:25;100127.28;;;2.42;100.00
13732;BME280;6937;56.096;12.664;2023-03-15T05:25:54;100135.34;;;2.39;100.00
13732;BME280;6937;56.096;12.664;2023-03-15T05:28:21;100135.41;;;2.37;100.00
13732;BME280;6937;56.096;12.664;2023-03-15T05:30:48;100135.41;;;2.37;100.00
13732;BME280;6937;56.096;12.664;2023-03-15T05:33:13;100136.97;;;2.41;100.00
13732;BME280;6937;56.096;12.664;2023-03-15T05:35:39;100145.97;;;2.37;100.00
13732;BME280;6937;56.096;12.664;2023-03-15T05:38:04;100143.44;;;2.36;100.00
13732;BME280;6937;56.096;12.664;2023-03-15T05:40:30;100142.56;;;2.35;100.00
13732;BME280;6937;56.096;12.664;2023-03-15T05:42:57;100149.69;;;2.33;100.00
13732;BME280;6937;56.096;12.664;2023-03-15T05:45:23;100151.41;;;2.34;100.00
13732;BME280;6937;56.096;12.664;2023-03-15T05:47:48;100161.03;;;2.35;100.00
13732;BME280;6937;56.096;12.664;2023-03-15T05:50:14;100157.53;;;2.35;100.00
13732;BME280;6937;56.096;12.664;2023-03-15T05:52:39;100160.06;;;2.36;100.00
13732;BME280;6937;56.096;12.664;2023-03-15T05:55:04;100160.00;;;2.38;100.00
13732;BME280;6937;56.096;12.664;2023-03-15T05:57:30;100168.63;;;2.41;100.00
13732;BME280;6937;56.096;12.664;2023-03-15T05:59:55;100176.47;;;2.43;100.00
13732;BME280;6937;56.096;12.664;2023-03-15T06:02:21;100177.34;;;2.43;100.00
13732;BME280;6937;56.096;12.664;2023-03-15T06:04:46;100179.72;;;2.48;100.00
13732;BME280;6937;56.096;12.664;2023-03-15T06:07:12;100186.78;;;2.48;100.00
13732;BME280;6937;56.096;12.664;2023-03-15T06:09:37;100180.53;;;2.50;100.00
13732;BME280;6937;56.096;12.664;2023-03-15T06:12:03;100180.31;;;2.55;100.00
13732;BME280;6937;56.096;12.664;2023-03-15T06:14:29;100190.97;;;2.52;100.00
13732;BME280;6937;56.096;12.664;2023-03-15T06:16:54;100198.75;;;2.55;100.00
13732;BME280;6937;56.096;12.664;2023-03-15T06:19:20;100197.69;;;2.59;100.00
13732;BME280;6937;56.096;12.664;2023-03-15T06:21:46;100188.81;;;2.60;100.00
13732;BME280;6937;56.096;12.664;2023-03-15T06:24:11;100190.00;;;2.54;100.00
13732;BME280;6937;56.096;12.664;2023-03-15T06:26:37;100193.94;;;2.63;100.00
13732;BME280;6937;56.096;12.664;2023-03-15T06:29:02;100199.22;;;2.63;100.00
13732;BME280;6937;56.096;12.664;2023-03-15T06:31:28;100199.09;;;2.66;100.00
13732;BME280;6937;56.096;12.664;2023-03-15T06:33:53;100206.91;;;2.67;100.00
13732;BME280;6937;56.096;12.664;2023-03-15T06:36:19;100205.13;;;2.68;100.00
13732;BME280;6937;56.096;12.664;2023-03-15T06:38:44;100226.88;;;2.73;100.00
13732;BME280;6937;56.096;12.664;2023-03-15T06:41:10;100226.72;;;2.76;100.00
13732;BME280;6937;56.096;12.664;2023-03-15T06:43:36;100229.38;;;2.76;100.00
13732;BME280;6937;56.096;12.664;2023-03-15T06:46:02;100228.34;;;2.78;100.00
13732;BME280;6937;56.096;12.664;2023-03-15T06:48:28;100238.84;;;2.80;100.00
13732;BME280;6937;56.096;12.664;2023-03-15T06:50:54;100236.97;;;2.82;100.00
13732;BME280;6937;56.096;12.664;2023-03-15T06:53:19;100234.25;;;2.83;100.00
13732;BME280;6937;56.096;12.664;2023-03-15T06:55:46;100243.81;;;2.86;100.00
13732;BME280;6937;56.096;12.664;2023-03-15T06:58:12;100234.16;;;2.85;100.00
13732;BME280;6937;56.096;12.664;2023-03-15T07:00:37;100257.78;;;2.88;100.00
13732;BME280;6937;56.096;12.664;2023-03-15T07:03:03;100251.44;;;2.92;100.00
13732;BME280;6937;56.096;12.664;2023-03-15T07:05:29;100250.50;;;2.93;100.00
13732;BME280;6937;56.096;12.664;2023-03-15T07:07:54;100255.63;;;2.96;100.00
13732;BME280;6937;56.096;12.664;2023-03-15T07:10:20;100247.72;;;2.96;100.00
13732;BME280;6937;56.096;12.664;2023-03-15T07:12:45;100263.41;;;2.99;100.00
13732;BME280;6937;56.096;12.664;2023-03-15T07:15:11;100266.66;;;3.04;100.00
13732;BME280;6937;56.096;12.664;2023-03-15T07:17:37;100275.28;;;3.08;100.00
13732;BME280;6937;56.096;12.664;2023-03-15T07:20:03;100270.78;;;3.10;100.00
13732;BME280;6937;56.096;12.664;2023-03-15T07:22:33;100272.25;;;3.15;100.00
13732;BME280;6937;56.096;12.664;2023-03-15T07:24:58;100270.31;;;3.19;100.00
13732;BME280;6937;56.096;12.664;2023-03-15T07:27:24;100277.25;;;3.21;100.00
13732;BME280;6937;56.096;12.664;2023-03-15T07:29:49;100280.66;;;3.23;100.00
13732;BME280;6937;56.096;12.664;2023-03-15T07:32:15;100291.91;;;3.27;100.00
13732;BME280;6937;56.096;12.664;2023-03-15T07:34:40;100283.97;;;3.27;100.00
13732;BME280;6937;56.096;12.664;2023-03-15T07:37:05;100303.97;;;3.32;100.00
13732;BME280;6937;56.096;12.664;2023-03-15T07:39:31;100292.31;;;3.36;100.00
13732;BME280;6937;56.096;12.664;2023-03-15T07:41:57;100290.44;;;3.38;100.00
13732;BME280;6937;56.096;12.664;2023-03-15T07:44:23;100296.41;;;3.42;100.00
13732;BME280;6937;56.096;12.664;2023-03-15T07:46:49;100299.75;;;3.46;100.00
13732;BME280;6937;56.096;12.664;2023-03-15T07:49:15;100318.19;;;3.47;100.00
13732;BME280;6937;56.096;12.664;2023-03-15T07:51:40;100302.34;;;3.47;100.00
13732;BME280;6937;56.096;12.664;2023-03-15T07:54:07;100309.94;;;3.53;100.00
13732;BME280;6937;56.096;12.664;2023-03-15T07:56:32;100315.91;;;3.57;100.00
13732;BME280;6937;56.096;12.664;2023-03-15T07:58:58;100307.75;;;3.61;100.00
13732;BME280;6937;56.096;12.664;2023-03-15T08:01:23;100324.41;;;3.63;100.00
13732;BME280;6937;56.096;12.664;2023-03-15T08:03:48;100320.75;;;3.66;100.00
13732;BME280;6937;56.096;12.664;2023-03-15T08:06:14;100331.94;;;3.71;100.00
13732;BME280;6937;56.096;12.664;2023-03-15T08:08:39;100328.91;;;3.78;100.00
13732;BME280;6937;56.096;12.664;2023-03-15T08:11:05;100335.59;;;3.85;100.00
13732;BME280;6937;56.096;12.664;2023-03-15T08:13:30;100350.50;;;3.86;100.00
13732;BME280;6937;56.096;12.664;2023-03-15T08:15:56;100342.56;;;3.86;100.00
13732;BME280;6937;56.096;12.664;2023-03-15T08:18:21;100351.19;;;3.90;100.00
13732;BME280;6937;56.096;12.664;2023-03-15T08:20:47;100357.34;;;3.90;100.00
13732;BME280;6937;56.096;12.664;2023-03-15T08:23:12;100353.59;;;3.95;100.00
13732;BME280;6937;56.096;12.664;2023-03-15T08:25:41;100366.53;;;4.01;100.00
13732;BME280;6937;56.096;12.664;2023-03-15T08:28:07;100364.34;;;3.92;100.00
13732;BME280;6937;56.096;12.664;2023-03-15T08:30:33;100371.50;;;3.89;100.00
13732;BME280;6937;56.096;12.664;2023-03-15T08:32:58;100368.78;;;3.91;100.00
13732;BME280;6937;56.096;12.664;2023-03-15T08:35:23;100366.44;;;4.02;100.00
13732;BME280;6937;56.096;12.664;2023-03-15T08:37:49;100371.53;;;4.05;100.00
13732;BME280;6937;56.096;12.664;2023-03-15T08:40:18;100386.31;;;4.09;100.00
13732;BME280;6937;56.096;12.664;2023-03-15T08:42:50;100380.34;;;4.06;100.00
13732;BME280;6937;56.096;12.664;2023-03-15T08:45:16;100372.97;;;4.12;100.00
13732;BME280;6937;56.096;12.664;2023-03-15T08:47:42;100386.78;;;4.17;100.00
13732;BME280;6937;56.096;12.664;2023-03-15T08:50:10;100386.78;;;4.17;100.00
13732;BME280;6937;56.096;12.664;2023-03-15T08:52:37;100381.19;;;4.23;100.00
13732;BME280;6937;56.096;12.664;2023-03-15T08:55:03;100390.41;;;4.32;100.00
13732;BME280;6937;56.096;12.664;2023-03-15T08:57:30;100384.81;;;4.38;100.00
13732;BME280;6937;56.096;12.664;2023-03-15T09:00:02;100379.53;;;4.38;100.00
13732;BME280;6937;56.096;12.664;2023-03-15T09:02:32;100396.41;;;4.35;100.00
13732;BME280;6937;56.096;12.664;2023-03-15T09:04:57;100408.75;;;4.35;100.00
13732;BME280;6937;56.096;12.664;2023-03-15T09:07:23;100409.38;;;4.40;100.00
13732;BME280;6937;56.096;12.664;2023-03-15T09:09:48;100428.59;;;4.44;100.00
13732;BME280;6937;56.096;12.664;2023-03-15T09:12:15;100425.31;;;4.56;100.00
13732;BME280;6937;56.096;12.664;2023-03-15T09:14:40;100427.09;;;4.55;100.00
13732;BME280;6937;56.096;12.664;2023-03-15T09:17:06;100431.69;;;4.52;100.00
13732;BME280;6937;56.096;12.664;2023-03-15T09:19:32;100442.47;;;4.49;100.00
13732;BME280;6937;56.096;12.664;2023-03-15T09:21:57;100450.69;;;4.43;100.00
13732;BME280;6937;56.096;12.664;2023-03-15T09:24:22;100447.13;;;4.44;100.00
13732;BME280;6937;56.096;12.664;2023-03-15T09:26:48;100448.78;;;4.46;100.00
13732;BME280;6937;56.096;12.664;2023-03-15T09:29:13;100434.28;;;4.53;100.00
13732;BME280;6937;56.096;12.664;2023-03-15T09:31:39;100443.22;;;4.51;100.00
13732;BME280;6937;56.096;12.664;2023-03-15T09:34:04;100443.91;;;4.54;100.00
13732;BME280;6937;56.096;12.664;2023-03-15T09:36:31;100450.44;;;4.64;100.00
13732;BME280;6937;56.096;12.664;2023-03-15T09:38:56;100462.47;;;4.70;100.00
13732;BME280;6937;56.096;12.664;2023-03-15T09:41:34;100455.47;;;4.69;100.00
13732;BME280;6937;56.096;12.664;2023-03-15T09:46:46;100442.94;;;4.72;100.00
13732;BME280;6937;56.096;12.664;2023-03-15T09:49:30;100435.38;;;4.82;100.00
13732;BME280;6937;56.096;12.664;2023-03-15T09:52:02;100419.81;;;4.76;100.00
13732;BME280;6937;56.096;12.664;2023-03-15T09:55:10;100417.59;;;4.84;100.00
13732;BME280;6937;56.096;12.664;2023-03-15T10:00:12;100422.31;;;5.10;100.00
13732;BME280;6937;56.096;12.664;2023-03-15T10:02:44;100422.94;;;5.15;100.00
13732;BME280;6937;56.096;12.664;2023-03-15T10:05:21;100423.84;;;5.14;100.00
13732;BME280;6937;56.096;12.664;2023-03-15T10:07:48;100422.16;;;5.13;100.00
13732;BME280;6937;56.096;12.664;2023-03-15T10:10:17;100425.66;;;4.98;100.00
13732;BME280;6937;56.096;12.664;2023-03-15T10:12:48;100433.91;;;4.92;100.00
13732;BME280;6937;56.096;12.664;2023-03-15T10:15:27;100424.81;;;4.98;100.00
13732;BME280;6937;56.096;12.664;2023-03-15T10:20:31;100435.41;;;5.13;100.00
13732;BME280;6937;56.096;12.664;2023-03-15T10:25:45;100430.44;;;5.23;100.00
13732;BME280;6937;56.096;12.664;2023-03-15T10:28:22;100430.69;;;5.34;100.00
13732;BME280;6937;56.096;12.664;2023-03-15T10:30:49;100436.06;;;5.32;100.00
13732;BME280;6937;56.096;12.664;2023-03-15T10:33:36;100447.03;;;5.42;100.00
13732;BME280;6937;56.096;12.664;2023-03-15T10:36:13;100429.41;;;5.41;100.00
13732;BME280;6937;56.096;12.664;2023-03-15T10:38:38;100439.59;;;5.33;100.00
13732;BME280;6937;56.096;12.664;2023-03-15T10:41:06;100445.50;;;5.38;100.00
13732;BME280;6937;56.096;12.664;2023-03-15T10:43:33;100435.75;;;5.54;100.00
13732;BME280;6937;56.096;12.664;2023-03-15T10:46:09;100438.28;;;5.56;100.00
13732;BME280;6937;56.096;12.664;2023-03-15T10:48:59;100447.28;;;5.53;100.00
13732;BME280;6937;56.096;12.664;2023-03-15T10:51:33;100440.88;;;5.57;100.00
13732;BME280;6937;56.096;12.664;2023-03-15T10:54:07;100439.94;;;5.58;100.00
13732;BME280;6937;56.096;12.664;2023-03-15T10:59:18;100452.22;;;5.59;100.00
13732;BME280;6937;56.096;12.664;2023-03-15T11:01:46;100464.03;;;5.69;100.00
13732;BME280;6937;56.096;12.664;2023-03-15T11:04:18;100455.47;;;5.80;100.00
13732;BME280;6937;56.096;12.664;2023-03-15T11:06:58;100470.97;;;5.88;100.00
13732;BME280;6937;56.096;12.664;2023-03-15T11:09:37;100470.88;;;5.73;100.00
13732;BME280;6937;56.096;12.664;2023-03-15T11:12:49;100474.47;;;5.88;100.00
13732;BME280;6937;56.096;12.664;2023-03-15T11:15:00;100480.28;;;5.95;100.00
13732;BME280;6937;56.096;12.664;2023-03-15T11:17:29;100481.19;;;5.94;100.00
13732;BME280;6937;56.096;12.664;2023-03-15T11:19:58;100492.31;;;6.00;100.00
13732;BME280;6937;56.096;12.664;2023-03-15T11:22:25;100483.81;;;6.09;100.00
13732;BME280;6937;56.096;12.664;2023-03-15T11:24:51;100495.63;;;6.04;100.00
13732;BME280;6937;56.096;12.664;2023-03-15T11:27:21;100496.69;;;6.01;100.00
13732;BME280;6937;56.096;12.664;2023-03-15T11:29:49;100494.56;;;5.92;100.00
13732;BME280;6937;56.096;12.664;2023-03-15T11:32:26;100502.06;;;5.84;100.00
13732;BME280;6937;56.096;12.664;2023-03-15T11:35:16;100501.47;;;5.79;100.00
13732;BME280;6937;56.096;12.664;2023-03-15T11:37:45;100514.38;;;5.85;100.00
13732;BME280;6937;56.096;12.664;2023-03-15T11:40:19;100445.13;;;5.91;100.00
13732;BME280;6937;56.096;12.664;2023-03-15T11:42:55;100456.84;;;5.87;100.00
13732;BME280;6937;56.096;12.664;2023-03-15T11:45:41;100467.59;;;6.00;100.00
13732;BME280;6937;56.096;12.664;2023-03-15T11:48:25;100476.63;;;6.11;100.00
13732;BME280;6937;56.096;12.664;2023-03-15T11:50:53;100479.78;;;6.18;100.00
13732;BME280;6937;56.096;12.664;2023-03-15T11:53:19;100508.22;;;6.30;100.00
13732;BME280;6937;56.096;12.664;2023-03-15T11:55:49;100492.31;;;6.30;100.00
13732;BME280;6937;56.096;12.664;2023-03-15T11:58:32;100497.31;;;6.50;100.00
13732;BME280;6937;56.096;12.664;2023-03-15T12:01:03;100508.00;;;6.49;100.00
13732;BME280;6937;56.096;12.664;2023-03-15T12:06:04;100504.56;;;6.32;100.00
13732;BME280;6937;56.096;12.664;2023-03-15T12:13:53;100521.91;;;6.38;100.00
13732;BME280;6937;56.096;12.664;2023-03-15T12:16:29;100541.00;;;6.45;100.00
13732;BME280;6937;56.096;12.664;2023-03-15T12:19:00;100526.69;;;6.47;100.00
13732;BME280;6937;56.096;12.664;2023-03-15T12:21:37;100543.59;;;6.60;100.00
13732;BME280;6937;56.096;12.664;2023-03-15T12:24:05;100540.84;;;6.62;100.00
13732;BME280;6937;56.096;12.664;2023-03-15T12:26:39;100545.75;;;6.54;100.00
13732;BME280;6937;56.096;12.664;2023-03-15T12:31:48;100548.81;;;6.32;100.00
13732;BME280;6937;56.096;12.664;2023-03-15T12:34:28;100561.06;;;6.35;100.00
13732;BME280;6937;56.096;12.664;2023-03-15T12:37:00;100551.69;;;6.43;100.00
13732;BME280;6937;56.096;12.664;2023-03-15T12:39:51;100539.78;;;6.50;100.00
13732;BME280;6937;56.096;12.664;2023-03-15T12:56:29;100577.03;;;6.49;100.00
13732;BME280;6937;56.096;12.664;2023-03-15T12:59:06;100572.78;;;6.60;100.00
13732;BME280;6937;56.096;12.664;2023-03-15T13:01:34;100583.16;;;6.65;100.00
13732;BME280;6937;56.096;12.664;2023-03-15T13:04:01;100591.72;;;6.70;100.00
13732;BME280;6937;56.096;12.664;2023-03-15T13:06:42;100583.47;;;6.74;100.00
13732;BME280;6937;56.096;12.664;2023-03-15T13:12:10;100585.78;;;6.95;100.00
13732;BME280;6937;56.096;12.664;2023-03-15T13:15:06;100583.91;;;6.97;100.00
13732;BME280;6937;56.096;12.664;2023-03-15T13:17:41;100577.31;;;6.74;100.00
13732;BME280;6937;56.096;12.664;2023-03-15T13:23:29;100586.97;;;6.75;100.00
13732;BME280;6937;56.096;12.664;2023-03-15T13:28:36;100586.44;;;6.98;100.00
13732;BME280;6937;56.096;12.664;2023-03-15T13:31:30;100588.91;;;7.01;100.00
13732;BME280;6937;56.096;12.664;2023-03-15T13:33:57;100593.06;;;6.91;100.00
13732;BME280;6937;56.096;12.664;2023-03-15T13:36:39;100587.78;;;6.61;100.00
13732;BME280;6937;56.096;12.664;2023-03-15T13:39:14;100596.75;;;6.45;100.00
13732;BME280;6937;56.096;12.664;2023-03-15T13:41:40;100614.50;;;6.28;100.00
13732;BME280;6937;56.096;12.664;2023-03-15T13:44:16;100607.81;;;6.37;100.00
13732;BME280;6937;56.096;12.664;2023-03-15T13:46:42;100613.06;;;6.53;100.00
13732;BME280;6937;56.096;12.664;2023-03-15T13:49:10;100613.44;;;6.76;100.00